Dirección General De Aeronáutica Civil

Dirección Meteorológica de Chile - Servicios Climáticos

Informe General de Control de Calidad de la Estación

Listado de niveles de control de calidad para algunos parámetros
Estación Cisnes Puyuhuapi (440004)
Fecha de Revisión de los datos :

Elementos

Registros Niveles de Control Total
Nivel 0 Nivel 1 Nivel 2 Nivel 3 Errores Porcentaje
01 Temperatura del Aire Seco 14.400 0 . 0 . 0 . 0 . 0 0.00 %
02 Temperatura de Rocío 14.400 0 . 0 . 0 . 0 . 0 0.00 %
03 Humedad Relativa del Aire 14.786 0 . 0 . 0 . 0 . 0 0.00 %
04 Temperatura Máxima PM 605 0 . 0 . 60 9.92 % 0 . 60 9.92 %
05 Temperatura Mínima AM 590 0 . 0 . 31 5.25 % 0 . 31 5.25 %
06 Viento a 10 m. de Altura 14.782 0 . 0 . 0 . 0 . 0 0.00 %
07 Agua Caida, Acumulada 6 Horas 2.471 0 . 0 . 0 . 0 . 0 0.00 %
08 Presión Atm. a Nivel de Estación (QFE) 14.786 0 . 0 . 0 . 0 . 0 0.00 %
09 Presión Atm. a Nivel Medio del Mar (QFF) 14.786 0 . 0 . 0 . 0 . 0 0.00 %
10 Presión Atm. Estándar OACI (QNH) 14.786 0 . 0 . 0 . 0 . 0 0.00 %

Totales

106.392 . 0.0000 % . 0.0000 % . 0.0855 % . 0.0000 % 91 0.0855 %

Detalle de Errores Encontrados

Nivel Fecha del Dato Descripción Información Error Fecha Ingreso
2 2019-03-02 00:00:00 Temperatura 16.4 del 01-03-2019 17:00, Mayor que la Máxima 16.0 02-03-2019 00:00 16.4 -- 16.0 2019-03-02 00:15:00
2 2021-06-16 00:00:00 Temperatura 7.3 del 15-06-2021 18:00, Mayor que la Máxima -0.5 16-06-2021 00:00 7.3 -- -0.5 2021-06-16 00:21:00
2 2021-07-04 00:00:00 Temperatura 10.7 del 03-07-2021 15:00, Mayor que la Máxima 9.6 04-07-2021 00:00 10.7 -- 9.6 2021-07-04 00:20:00
2 2021-07-05 00:00:00 Temperatura 12.1 del 04-07-2021 17:00, Mayor que la Máxima 10.8 05-07-2021 00:00 12.1 -- 10.8 2021-07-05 00:21:00
2 2021-07-08 00:00:00 Temperatura 9.2 del 07-07-2021 17:00, Mayor que la Máxima 6.5 08-07-2021 00:00 9.2 -- 6.5 2021-07-08 00:21:00
2 2021-07-09 00:00:00 Temperatura 7.3 del 08-07-2021 15:00, Mayor que la Máxima 5.4 09-07-2021 00:00 7.3 -- 5.4 2021-07-09 00:20:00
2 2021-07-13 00:00:00 Temperatura 9.5 del 12-07-2021 19:00, Mayor que la Máxima 6.0 13-07-2021 00:00 9.5 -- 6.0 2021-07-13 00:20:00
2 2021-07-16 00:00:00 Temperatura 7.5 del 15-07-2021 16:00, Mayor que la Máxima 6.5 16-07-2021 00:00 7.5 -- 6.5 2021-07-16 00:20:00
2 2021-07-17 00:00:00 Temperatura 7.7 del 16-07-2021 17:00, Mayor que la Máxima 6.0 17-07-2021 00:00 7.7 -- 6.0 2021-07-17 00:20:00
2 2021-07-21 00:00:00 Temperatura 12.4 del 20-07-2021 19:00, Mayor que la Máxima 10.3 21-07-2021 00:00 12.4 -- 10.3 2021-07-21 00:20:00
2 2021-07-23 00:00:00 Temperatura 10.3 del 22-07-2021 17:00, Mayor que la Máxima 10.1 23-07-2021 00:00 10.3 -- 10.1 2021-07-23 00:20:00
2 2021-07-31 00:00:00 Temperatura 7.5 del 30-07-2021 17:00, Mayor que la Máxima 2.9 31-07-2021 00:00 7.5 -- 2.9 2021-07-31 00:21:00
2 2021-09-08 00:00:00 Temperatura 13.8 del 07-09-2021 20:00, Mayor que la Máxima 6.0 08-09-2021 00:00 13.8 -- 6.0 2021-09-08 00:21:00
2 2021-09-22 00:00:00 Temperatura 14.3 del 21-09-2021 20:00, Mayor que la Máxima 7.9 22-09-2021 00:00 14.3 -- 7.9 2021-09-22 00:20:00
2 2021-09-23 00:00:00 Temperatura 13.2 del 22-09-2021 17:00, Mayor que la Máxima 9.6 23-09-2021 00:00 13.2 -- 9.6 2021-09-23 00:20:00
2 2021-09-24 00:00:00 Temperatura 14.1 del 23-09-2021 19:00, Mayor que la Máxima 12.1 24-09-2021 00:00 14.1 -- 12.1 2021-09-24 00:21:00
2 2021-09-25 00:00:00 Temperatura 14.6 del 24-09-2021 16:00, Mayor que la Máxima 13.5 25-09-2021 00:00 14.6 -- 13.5 2021-09-25 00:21:00
2 2021-10-05 00:00:00 Temperatura 8.8 del 04-10-2021 19:00, Mayor que la Máxima 6.3 05-10-2021 00:00 8.8 -- 6.3 2021-10-05 00:20:00
2 2021-10-06 00:00:00 Temperatura 12.8 del 05-10-2021 21:00, Mayor que la Máxima 3.6 06-10-2021 00:00 12.8 -- 3.6 2021-10-06 00:20:00
2 2021-10-07 00:00:00 Temperatura 15.5 del 06-10-2021 20:00, Mayor que la Máxima 7.8 07-10-2021 00:00 15.5 -- 7.8 2021-10-07 00:20:00
2 2021-10-10 00:00:00 Temperatura 18.0 del 09-10-2021 19:00, Mayor que la Máxima 15.6 10-10-2021 00:00 18.0 -- 15.6 2021-10-10 00:20:00
2 2021-10-27 00:00:00 Temperatura 13.2 del 26-10-2021 18:00, Mayor que la Máxima 11.2 27-10-2021 00:00 13.2 -- 11.2 2021-10-27 00:20:00
2 2021-10-29 00:00:00 Temperatura 18.0 del 28-10-2021 19:00, Mayor que la Máxima 16.2 29-10-2021 00:00 18.0 -- 16.2 2021-10-29 00:20:00
2 2021-10-30 00:00:00 Temperatura 14.3 del 29-10-2021 15:00, Mayor que la Máxima 11.2 30-10-2021 00:00 14.3 -- 11.2 2021-10-30 00:20:00
2 2021-10-31 00:00:00 Temperatura 20.0 del 30-10-2021 20:00, Mayor que la Máxima 11.6 31-10-2021 00:00 20.0 -- 11.6 2021-10-31 00:20:00
2 2021-11-01 00:00:00 Temperatura 23.8 del 31-10-2021 20:00, Mayor que la Máxima 20.8 01-11-2021 00:00 23.8 -- 20.8 2021-11-01 00:20:00
2 2021-11-30 00:00:00 Temperatura 17.4 del 29-11-2021 20:00, Mayor que la Máxima 14.0 30-11-2021 00:00 17.4 -- 14.0 2021-11-30 00:20:00
2 2021-12-02 00:00:00 Temperatura 13.2 del 01-12-2021 19:00, Mayor que la Máxima 8.4 02-12-2021 00:00 13.2 -- 8.4 2021-12-02 00:20:00
2 2021-12-07 00:00:00 Temperatura 25.7 del 06-12-2021 21:00, Mayor que la Máxima 18.6 07-12-2021 00:00 25.7 -- 18.6 2021-12-08 01:12:00
2 2021-12-29 00:00:00 Temperatura 23.5 del 28-12-2021 21:00, Mayor que la Máxima 20.1 29-12-2021 00:00 23.5 -- 20.1 2021-12-29 00:20:00
2 2022-01-04 00:00:00 Temperatura 13.9 del 03-01-2022 13:00, Mayor que la Máxima 10.2 04-01-2022 00:00 13.9 -- 10.2 2022-01-04 00:20:00
2 2022-01-07 00:00:00 Temperatura 25.2 del 06-01-2022 21:00, Mayor que la Máxima 20.7 07-01-2022 00:00 25.2 -- 20.7 2022-01-07 00:20:00
2 2022-01-11 00:00:00 Temperatura 21.1 del 10-01-2022 19:00, Mayor que la Máxima 15.9 11-01-2022 00:00 21.1 -- 15.9 2022-01-11 00:20:00
2 2022-01-29 00:00:00 Temperatura 27.3 del 28-01-2022 21:00, Mayor que la Máxima 17.8 29-01-2022 00:00 27.3 -- 17.8 2022-01-29 00:20:00
2 2022-03-30 00:00:00 Temperatura 14.0 del 29-03-2022 20:00, Mayor que la Máxima 7.0 30-03-2022 00:00 14.0 -- 7.0 2022-03-30 00:36:00
2 2022-04-12 00:00:00 Temperatura 13.8 del 11-04-2022 20:00, Mayor que la Máxima 8.7 12-04-2022 00:00 13.8 -- 8.7 2022-04-12 03:09:00
2 2022-04-16 00:00:00 Temperatura 14.7 del 15-04-2022 17:00, Mayor que la Máxima 11.6 16-04-2022 00:00 14.7 -- 11.6 2022-04-16 00:51:00
2 2022-04-19 00:00:00 Temperatura 13.7 del 18-04-2022 18:00, Mayor que la Máxima 9.6 19-04-2022 00:00 13.7 -- 9.6 2022-04-19 00:09:00
2 2022-05-10 00:00:00 Temperatura 10.3 del 09-05-2022 19:00, Mayor que la Máxima 7.0 10-05-2022 00:00 10.3 -- 7.0 2022-05-10 00:09:00
2 2022-05-11 00:00:00 Temperatura 12.4 del 10-05-2022 19:00, Mayor que la Máxima 3.4 11-05-2022 00:00 12.4 -- 3.4 2022-05-11 00:09:00
2 2022-05-13 00:00:00 Temperatura 10.1 del 12-05-2022 20:00, Mayor que la Máxima 6.8 13-05-2022 00:00 10.1 -- 6.8 2022-05-13 00:09:00
2 2022-05-14 00:00:00 Temperatura 8.1 del 13-05-2022 18:00, Mayor que la Máxima 7.7 14-05-2022 00:00 8.1 -- 7.7 2022-05-14 00:09:00
2 2022-05-17 00:00:00 Temperatura 13.4 del 16-05-2022 18:00, Mayor que la Máxima 4.8 17-05-2022 00:00 13.4 -- 4.8 2022-05-17 00:09:00
2 2022-05-19 00:00:00 Temperatura 11.8 del 18-05-2022 18:00, Mayor que la Máxima 3.9 19-05-2022 00:00 11.8 -- 3.9 2022-05-19 00:09:00
2 2022-05-20 00:00:00 Temperatura 10.8 del 19-05-2022 19:00, Mayor que la Máxima 7.2 20-05-2022 00:00 10.8 -- 7.2 2022-05-20 00:09:00
2 2022-05-21 00:00:00 Temperatura 10.5 del 20-05-2022 19:00, Mayor que la Máxima 7.8 21-05-2022 00:00 10.5 -- 7.8 2022-05-21 00:21:00
2 2022-05-22 00:00:00 Temperatura 6.9 del 21-05-2022 15:00, Mayor que la Máxima 5.6 22-05-2022 00:00 6.9 -- 5.6 2022-05-22 00:09:00
2 2022-05-24 00:00:00 Temperatura 5.1 del 23-05-2022 18:00, Mayor que la Máxima 4.2 24-05-2022 00:00 5.1 -- 4.2 2022-05-24 00:21:00
2 2022-05-25 00:00:00 Temperatura 6.3 del 24-05-2022 18:00, Mayor que la Máxima -0.2 25-05-2022 00:00 6.3 -- -0.2 2022-05-25 00:09:00
2 2022-05-27 00:00:00 Temperatura 6.8 del 26-05-2022 19:00, Mayor que la Máxima 3.3 27-05-2022 00:00 6.8 -- 3.3 2022-05-27 00:09:00
2 2022-05-31 00:00:00 Temperatura 3.3 del 30-05-2022 18:00, Mayor que la Máxima -1.4 31-05-2022 00:00 3.3 -- -1.4 2022-05-31 00:09:00
2 2022-06-01 00:00:00 Temperatura 6.6 del 31-05-2022 19:00, Mayor que la Máxima -1.5 01-06-2022 00:00 6.6 -- -1.5 2022-06-01 00:09:00
2 2022-06-02 00:00:00 Temperatura 5.8 del 01-06-2022 17:00, Mayor que la Máxima -1.5 02-06-2022 00:00 5.8 -- -1.5 2022-06-02 00:09:00
2 2022-06-07 00:00:00 Temperatura 8.2 del 06-06-2022 19:00, Mayor que la Máxima 6.0 07-06-2022 00:00 8.2 -- 6.0 2022-06-07 00:20:00
2 2022-06-08 00:00:00 Temperatura 9.1 del 07-06-2022 18:00, Mayor que la Máxima 7.7 08-06-2022 00:00 9.1 -- 7.7 2022-06-08 00:09:00
2 2022-06-09 00:00:00 Temperatura 9.3 del 08-06-2022 13:00, Mayor que la Máxima 4.7 09-06-2022 00:00 9.3 -- 4.7 2022-06-09 00:09:00
2 2022-06-15 00:00:00 Temperatura 8.0 del 14-06-2022 22:00, Mayor que la Máxima 7.7 15-06-2022 00:00 8.0 -- 7.7 2022-06-15 00:09:00
2 2022-07-05 00:00:00 Temperatura 4.1 del 04-07-2022 17:00, Mayor que la Máxima 3.9 05-07-2022 00:00 4.1 -- 3.9 2022-07-05 00:21:00
2 2022-07-06 00:00:00 Temperatura 4.8 del 05-07-2022 16:00, Mayor que la Máxima 3.5 06-07-2022 00:00 4.8 -- 3.5 2022-07-06 00:21:00
2 2022-07-29 00:00:00 Temperatura 8.5 del 28-07-2022 20:00, Mayor que la Máxima 6.3 29-07-2022 00:00 8.5 -- 6.3 2022-07-29 00:36:00
2 2021-07-03 12:00:00 Temperatura 6.9 del 03-07-2021 06:00, Menor que la Mínima 7.4 03-07-2021 12:00 6.9 -- 7.4 2021-07-03 12:20:00
2 2021-07-08 12:00:00 Temperatura 3.0 del 08-07-2021 02:00, Menor que la Mínima 3.3 08-07-2021 12:00 3.0 -- 3.3 2021-07-08 12:20:00
2 2021-08-01 12:00:00 Temperatura -0.8 del 01-08-2021 03:00, Menor que la Mínima 1.9 01-08-2021 12:00 -0.8 -- 1.9 2021-08-01 12:21:00
2 2021-10-09 12:00:00 Temperatura 8.2 del 09-10-2021 10:00, Menor que la Mínima 8.3 09-10-2021 12:00 8.2 -- 8.3 2021-10-09 12:20:00
2 2021-10-18 12:00:00 Temperatura 7.6 del 18-10-2021 10:00, Menor que la Mínima 7.7 18-10-2021 12:00 7.6 -- 7.7 2021-10-18 12:20:00
2 2021-10-31 12:00:00 Temperatura 4.0 del 31-10-2021 10:00, Menor que la Mínima 10.2 31-10-2021 12:00 4.0 -- 10.2 2021-10-31 12:20:00
2 2021-11-30 12:00:00 Temperatura 5.8 del 30-11-2021 07:00, Menor que la Mínima 12.3 30-11-2021 12:00 5.8 -- 12.3 2021-11-30 12:20:00
2 2021-12-02 12:00:00 Temperatura 4.0 del 02-12-2021 10:00, Menor que la Mínima 7.3 02-12-2021 12:00 4.0 -- 7.3 2021-12-02 12:20:00
2 2021-12-07 12:00:00 Temperatura 7.7 del 07-12-2021 09:00, Menor que la Mínima 17.0 07-12-2021 12:00 7.7 -- 17.0 2021-12-08 01:12:00
2 2021-12-28 12:00:00 Temperatura 6.4 del 28-12-2021 09:00, Menor que la Mínima 14.0 28-12-2021 12:00 6.4 -- 14.0 2021-12-28 12:20:00
2 2022-01-14 12:00:00 Temperatura 13.8 del 14-01-2022 09:00, Menor que la Mínima 13.9 14-01-2022 12:00 13.8 -- 13.9 2022-01-14 12:20:00
2 2022-01-15 12:00:00 Temperatura 9.9 del 15-01-2022 09:00, Menor que la Mínima 10.7 15-01-2022 12:00 9.9 -- 10.7 2022-01-15 12:20:00
2 2022-01-16 12:00:00 Temperatura 4.4 del 16-01-2022 10:00, Menor que la Mínima 6.6 16-01-2022 12:00 4.4 -- 6.6 2022-01-16 12:20:00
2 2022-01-17 12:00:00 Temperatura 3.2 del 17-01-2022 08:00, Menor que la Mínima 8.9 17-01-2022 12:00 3.2 -- 8.9 2022-01-17 12:20:00
2 2022-03-30 12:00:00 Temperatura 4.3 del 30-03-2022 10:00, Menor que la Mínima 5.4 30-03-2022 12:00 4.3 -- 5.4 2022-03-30 12:36:00
2 2022-04-15 12:00:00 Temperatura 4.3 del 15-04-2022 06:00, Menor que la Mínima 8.8 15-04-2022 12:00 4.3 -- 8.8 2022-04-15 12:51:00
2 2022-04-18 12:00:00 Temperatura 6.9 del 18-04-2022 11:00, Menor que la Mínima 7.3 18-04-2022 12:00 6.9 -- 7.3 2022-04-18 12:10:00
2 2022-05-10 12:00:00 Temperatura 3.0 del 10-05-2022 08:00, Menor que la Mínima 3.5 10-05-2022 12:00 3.0 -- 3.5 2022-05-10 12:09:00
2 2022-05-13 12:00:00 Temperatura 4.6 del 13-05-2022 11:00, Menor que la Mínima 5.3 13-05-2022 12:00 4.6 -- 5.3 2022-05-13 12:09:00
2 2022-05-16 12:00:00 Temperatura 2.1 del 16-05-2022 05:00, Menor que la Mínima 3.3 16-05-2022 12:00 2.1 -- 3.3 2022-05-16 12:09:00
2 2022-05-18 12:00:00 Temperatura 2.2 del 18-05-2022 04:00, Menor que la Mínima 5.9 18-05-2022 12:00 2.2 -- 5.9 2022-05-18 12:09:00
2 2022-05-20 12:00:00 Temperatura 7.8 del 20-05-2022 01:00, Menor que la Mínima 8.2 20-05-2022 12:00 7.8 -- 8.2 2022-05-20 12:09:00
2 2022-05-21 12:00:00 Temperatura 4.8 del 21-05-2022 11:00, Menor que la Mínima 5.4 21-05-2022 12:00 4.8 -- 5.4 2022-05-21 12:21:00
2 2022-05-24 12:00:00 Temperatura 2.7 del 24-05-2022 11:00, Menor que la Mínima 2.8 24-05-2022 12:00 2.7 -- 2.8 2022-05-24 12:36:00
2 2022-05-25 12:00:00 Temperatura -2.2 del 25-05-2022 12:00, Menor que la Mínima -0.3 25-05-2022 12:00 -2.2 -- -0.3 2022-05-25 12:21:00
2 2022-06-01 12:00:00 Temperatura -4.0 del 01-06-2022 10:00, Menor que la Mínima -3.4 01-06-2022 12:00 -4.0 -- -3.4 2022-06-01 12:09:00
2 2022-06-02 12:00:00 Temperatura -2.5 del 02-06-2022 05:00, Menor que la Mínima 1.2 02-06-2022 12:00 -2.5 -- 1.2 2022-06-02 12:09:00
2 2022-06-07 12:00:00 Temperatura 5.7 del 07-06-2022 05:00, Menor que la Mínima 5.8 07-06-2022 12:00 5.7 -- 5.8 2022-06-07 12:09:00
2 2022-06-08 12:00:00 Temperatura 7.8 del 08-06-2022 01:00, Menor que la Mínima 8.6 08-06-2022 12:00 7.8 -- 8.6 2022-06-08 12:09:00
2 2022-07-05 12:00:00 Temperatura 3.3 del 05-07-2022 11:00, Menor que la Mínima 3.7 05-07-2022 12:00 3.3 -- 3.7 2022-07-05 12:21:00
2 2022-07-29 12:00:00 Temperatura 5.1 del 29-07-2022 06:00, Menor que la Mínima 6.5 29-07-2022 12:00 5.1 -- 6.5 2022-07-29 12:21:00
Errores del Nivel 91
Informe generado el 05-03-2024 09:58
Requerimiento: RE6001